createdAt,value
2023-04-20T00:01:20.570Z,100257.06
2023-04-20T00:03:47.190Z,100254.50
2023-04-20T00:06:14.086Z,100251.72
2023-04-20T00:08:40.688Z,100256.38
2023-04-20T00:11:07.226Z,100250.13
2023-04-20T00:13:33.800Z,100252.22
2023-04-20T00:16:00.594Z,100247.09
2023-04-20T00:18:27.167Z,100255.28
2023-04-20T00:20:53.785Z,100247.94
2023-04-20T00:23:20.564Z,100249.75
2023-04-20T00:25:49.675Z,100261.97
2023-04-20T00:28:16.292Z,100257.84
2023-04-20T00:30:42.879Z,100248.81
2023-04-20T00:33:09.443Z,100249.53
2023-04-20T00:35:36.053Z,100259.53
2023-04-20T00:38:02.603Z,100244.78
2023-04-20T00:40:29.279Z,100248.81
2023-04-20T00:42:55.868Z,100246.50
2023-04-20T00:45:22.590Z,100243.09
2023-04-20T00:47:49.308Z,100248.44
2023-04-20T00:50:16.183Z,100241.28
2023-04-20T00:52:42.927Z,100245.03
2023-04-20T00:55:09.772Z,100245.88
2023-04-20T00:57:36.504Z,100243.81
2023-04-20T01:00:03.736Z,100246.00
2023-04-20T01:02:30.424Z,100247.91
2023-04-20T01:04:57.131Z,100242.06
2023-04-20T01:07:26.010Z,100244.72
2023-04-20T01:09:52.596Z,100240.19
2023-04-20T01:12:19.174Z,100239.22
2023-04-20T01:14:45.734Z,100246.41
2023-04-20T01:17:15.103Z,100240.44
2023-04-20T01:19:42.120Z,100237.25
2023-04-20T01:22:08.648Z,100244.06
2023-04-20T01:24:35.190Z,100240.53
2023-04-20T01:27:01.794Z,100239.28
2023-04-20T01:29:28.426Z,100244.13
2023-04-20T01:31:55.164Z,100236.41
2023-04-20T01:34:21.730Z,100234.50
2023-04-20T01:36:48.355Z,100237.31
2023-04-20T01:39:15.085Z,100241.38
2023-04-20T01:41:41.879Z,100237.00
2023-04-20T01:44:08.448Z,100244.06
2023-04-20T01:46:41.712Z,100238.97
2023-04-20T01:49:08.864Z,100246.97
2023-04-20T01:51:35.896Z,100245.28
2023-04-20T01:54:02.953Z,100239.47
2023-04-20T01:56:29.564Z,100238.25
2023-04-20T01:58:56.167Z,100238.91
2023-04-20T02:01:22.809Z,100235.88
2023-04-20T02:03:50.011Z,100230.44
2023-04-20T02:06:17.089Z,100239.19
2023-04-20T02:08:43.749Z,100248.81
2023-04-20T02:11:10.333Z,100243.22
2023-04-20T02:13:36.921Z,100244.28
2023-04-20T02:16:03.613Z,100241.50
2023-04-20T02:18:32.319Z,100240.53
2023-04-20T02:21:00.917Z,100239.59
2023-04-20T02:23:27.809Z,100241.41
2023-04-20T02:25:54.549Z,100248.44
2023-04-20T02:28:21.093Z,100242.88
2023-04-20T02:30:47.679Z,100239.22
2023-04-20T02:33:14.356Z,100245.78
2023-04-20T02:35:40.917Z,100237.75
2023-04-20T02:38:07.502Z,100236.63
2023-04-20T02:40:34.035Z,100239.53
2023-04-20T02:43:00.614Z,100247.56
2023-04-20T02:45:27.151Z,100247.03
2023-04-20T02:47:53.811Z,100246.28
2023-04-20T02:50:20.936Z,100250.38
2023-04-20T02:52:47.518Z,100241.53
2023-04-20T02:55:14.296Z,100251.78
2023-04-20T02:57:40.902Z,100257.63
2023-04-20T03:00:09.087Z,100252.56
2023-04-20T03:02:37.596Z,100251.13
2023-04-20T03:05:04.696Z,100255.75
2023-04-20T03:07:31.591Z,100252.81
2023-04-20T03:09:58.138Z,100251.41
2023-04-20T03:12:24.809Z,100256.41
2023-04-20T03:14:51.827Z,100255.34
2023-04-20T03:17:18.383Z,100253.50
2023-04-20T03:19:44.959Z,100258.47
2023-04-20T03:22:11.929Z,100252.25
2023-04-20T03:24:38.451Z,100249.81
2023-04-20T03:27:06.257Z,100257.00
2023-04-20T03:29:32.823Z,100256.38
2023-04-20T03:31:59.436Z,100256.72
2023-04-20T03:34:26.791Z,100254.16
2023-04-20T03:36:53.458Z,100254.16
2023-04-20T03:39:20.184Z,100259.66
2023-04-20T03:41:46.849Z,100260.25
2023-04-20T03:44:15.132Z,100258.97
2023-04-20T03:46:41.660Z,100257.38
2023-04-20T03:49:08.237Z,100264.53
2023-04-20T03:51:34.785Z,100270.97
2023-04-20T03:54:01.419Z,100267.44
2023-04-20T03:56:28.515Z,100268.28
2023-04-20T03:58:55.090Z,100275.59
2023-04-20T04:01:21.696Z,100279.19
2023-04-20T04:03:48.624Z,100269.47
2023-04-20T04:06:15.611Z,100279.97
2023-04-20T04:08:42.137Z,100271.06
2023-04-20T04:11:08.777Z,100276.22
2023-04-20T04:13:36.465Z,100274.50
2023-04-20T04:16:03.138Z,100280.34
2023-04-20T04:18:32.531Z,100277.66
2023-04-20T04:20:59.552Z,100275.00
2023-04-20T04:23:26.401Z,100281.41
2023-04-20T04:25:52.968Z,100278.75
2023-04-20T04:28:19.776Z,100273.22
2023-04-20T04:30:47.432Z,100280.28
2023-04-20T04:33:14.841Z,100276.97
2023-04-20T04:35:41.701Z,100281.47
2023-04-20T04:38:08.631Z,100282.31
2023-04-20T04:40:35.907Z,100278.81
2023-04-20T04:43:02.756Z,100278.47
2023-04-20T04:45:29.507Z,100273.63
2023-04-20T04:47:57.243Z,100285.06
2023-04-20T04:50:23.932Z,100287.53
2023-04-20T04:52:50.561Z,100285.69
2023-04-20T04:55:17.264Z,100289.97
2023-04-20T04:57:43.809Z,100291.47
2023-04-20T05:00:12.462Z,100285.44
2023-04-20T05:02:39.460Z,100295.56
2023-04-20T05:05:09.405Z,100289.03
2023-04-20T05:07:36.358Z,100293.28
2023-04-20T05:10:02.965Z,100292.09
2023-04-20T05:12:29.592Z,100290.56
2023-04-20T05:14:56.156Z,100295.00
2023-04-20T05:17:22.722Z,100293.47
2023-04-20T05:19:49.335Z,100297.38
2023-04-20T05:22:15.890Z,100296.78
2023-04-20T05:24:42.599Z,100293.41
2023-04-20T05:27:09.582Z,100302.56
2023-04-20T05:29:36.378Z,100302.59
2023-04-20T05:32:03.122Z,100302.09
2023-04-20T05:34:29.997Z,100299.94
2023-04-20T05:36:59.207Z,100303.84
2023-04-20T05:39:26.431Z,100300.34
2023-04-20T05:41:53.053Z,100299.47
2023-04-20T05:44:19.568Z,100297.78
2023-04-20T05:46:46.246Z,100299.47
2023-04-20T05:49:12.816Z,100310.94
2023-04-20T05:51:39.368Z,100303.03
2023-04-20T05:54:06.164Z,100298.75
2023-04-20T05:56:32.790Z,100303.94
2023-04-20T05:59:00.071Z,100308.09
2023-04-20T06:01:26.667Z,100307.94
2023-04-20T06:03:53.485Z,100307.63
2023-04-20T06:06:20.076Z,100310.03
2023-04-20T06:08:46.668Z,100304.44
2023-04-20T06:11:13.255Z,100312.31
2023-04-20T06:13:39.838Z,100307.06
2023-04-20T06:16:09.558Z,100308.16
2023-04-20T06:18:37.262Z,100306.59
2023-04-20T06:21:04.516Z,100313.41
2023-04-20T06:23:31.479Z,100312.34
2023-04-20T06:25:58.069Z,100311.41
2023-04-20T06:28:24.714Z,100309.44
2023-04-20T06:30:51.333Z,100303.56
2023-04-20T06:33:18.058Z,100301.72
2023-04-20T06:35:44.751Z,100306.97
2023-04-20T06:38:11.427Z,100306.59
2023-04-20T06:40:38.140Z,100314.22
2023-04-20T06:43:04.732Z,100306.00
2023-04-20T06:45:32.906Z,100313.69
2023-04-20T06:48:00.748Z,100305.44
2023-04-20T06:50:27.425Z,100317.88
2023-04-20T06:52:54.052Z,100307.94
2023-04-20T06:55:21.069Z,100312.72
2023-04-20T06:57:47.661Z,100313.38
2023-04-20T07:00:15.112Z,100314.75
2023-04-20T07:02:51.537Z,100312.75
2023-04-20T07:05:18.630Z,100313.56
2023-04-20T07:07:45.681Z,100313.97
2023-04-20T07:10:14.192Z,100317.88
2023-04-20T07:12:42.821Z,100317.44
2023-04-20T07:15:10.888Z,100313.97
2023-04-20T07:17:37.522Z,100321.88
2023-04-20T07:20:09.074Z,100314.84
2023-04-20T07:22:38.959Z,100306.84
2023-04-20T07:25:07.925Z,100318.25
2023-04-20T07:27:36.641Z,100308.09
2023-04-20T07:30:03.973Z,100312.41
2023-04-20T07:32:30.596Z,100308.06
2023-04-20T07:34:57.223Z,100315.28
2023-04-20T07:37:25.814Z,100323.00
2023-04-20T07:39:53.825Z,100321.41
2023-04-20T07:42:21.569Z,100311.63
2023-04-20T07:44:48.623Z,100321.38
2023-04-20T07:47:15.439Z,100322.78
2023-04-20T07:49:43.349Z,100327.06
2023-04-20T07:52:16.941Z,100333.22
2023-04-20T07:54:47.508Z,100320.56
2023-04-20T07:57:14.109Z,100318.09
2023-04-20T07:59:41.315Z,100323.22
2023-04-20T08:02:08.732Z,100322.41
2023-04-20T08:04:39.046Z,100324.44
2023-04-20T08:07:05.877Z,100319.09
2023-04-20T08:09:32.707Z,100319.28
2023-04-20T08:12:00.348Z,100312.69
2023-04-20T08:14:27.098Z,100317.28
2023-04-20T08:16:53.729Z,100313.41
2023-04-20T08:19:20.460Z,100308.28
2023-04-20T08:21:47.020Z,100316.75
2023-04-20T08:24:13.751Z,100309.78
2023-04-20T08:26:40.848Z,100313.50
2023-04-20T08:29:07.488Z,100314.16
2023-04-20T08:31:34.272Z,100311.22
2023-04-20T08:34:01.370Z,100309.19
2023-04-20T08:36:28.179Z,100309.66
2023-04-20T08:38:58.625Z,100309.09
2023-04-20T08:41:26.402Z,100313.47
2023-04-20T08:43:52.976Z,100310.84
2023-04-20T08:46:19.978Z,100314.84
2023-04-20T08:48:48.607Z,100309.50
2023-04-20T08:51:17.208Z,100298.38
2023-04-20T08:53:44.172Z,100304.59
2023-04-20T08:56:11.170Z,100297.56
2023-04-20T08:58:42.212Z,100305.94
2023-04-20T09:01:10.559Z,100313.66
2023-04-20T09:03:43.037Z,100311.53
2023-04-20T09:06:18.403Z,100301.06
2023-04-20T09:08:46.500Z,100307.06
2023-04-20T09:11:23.786Z,100306.59
2023-04-20T09:14:07.346Z,100304.72
2023-04-20T09:16:40.119Z,100304.75
2023-04-20T09:19:09.251Z,100296.75
2023-04-20T09:21:36.417Z,100303.41
2023-04-20T09:24:08.177Z,100297.63
2023-04-20T09:26:36.265Z,100296.31
2023-04-20T09:29:04.311Z,100300.13
2023-04-20T09:31:31.051Z,100301.72
2023-04-20T09:34:02.904Z,100294.88
2023-04-20T09:36:37.353Z,100301.03
2023-04-20T09:39:11.544Z,100291.47
2023-04-20T09:41:38.733Z,100288.69
2023-04-20T09:44:06.254Z,100294.44
2023-04-20T09:46:35.085Z,100294.91
2023-04-20T09:49:04.346Z,100285.16
2023-04-20T09:51:33.450Z,100289.66
2023-04-20T09:54:01.759Z,100283.38
2023-04-20T09:56:30.613Z,100283.28
2023-04-20T09:58:58.207Z,100283.38
2023-04-20T10:01:25.592Z,100279.69
2023-04-20T10:03:57.577Z,100281.22
2023-04-20T10:06:27.738Z,100277.66
2023-04-20T10:08:55.383Z,100271.81
2023-04-20T10:11:53.829Z,100272.91
2023-04-20T10:14:26.154Z,100275.00
2023-04-20T10:17:08.836Z,100271.03
2023-04-20T10:19:39.109Z,100263.09
2023-04-20T10:22:06.912Z,100275.16
2023-04-20T10:24:33.580Z,100261.44
2023-04-20T10:27:00.536Z,100262.94
2023-04-20T10:29:28.821Z,100262.31
2023-04-20T10:31:56.140Z,100261.69
2023-04-20T10:34:36.314Z,100265.06
2023-04-20T10:37:13.402Z,100270.50
2023-04-20T10:39:47.227Z,100263.75
2023-04-20T10:42:15.481Z,100262.03
2023-04-20T10:44:54.586Z,100256.56
2023-04-20T10:47:29.836Z,100256.97
2023-04-20T10:50:15.650Z,100249.97
2023-04-20T10:52:44.671Z,100255.19
2023-04-20T10:55:25.009Z,100249.22
2023-04-20T10:57:52.316Z,100244.72
2023-04-20T11:00:21.736Z,100242.53
2023-04-20T11:02:50.416Z,100241.91
2023-04-20T11:05:18.881Z,100234.53
2023-04-20T11:07:53.669Z,100228.19
2023-04-20T11:10:22.060Z,100238.47
2023-04-20T11:12:48.976Z,100234.97
2023-04-20T11:15:16.410Z,100233.75
2023-04-20T11:17:43.136Z,100229.75
2023-04-20T11:20:15.472Z,100222.16
2023-04-20T11:22:43.430Z,100227.81
2023-04-20T11:25:11.956Z,100229.91
2023-04-20T11:27:39.616Z,100220.59
2023-04-20T11:30:09.076Z,100214.31
2023-04-20T11:32:36.234Z,100227.91
2023-04-20T11:35:07.812Z,100219.59
2023-04-20T11:37:48.103Z,100214.16
2023-04-20T11:40:15.327Z,100211.25
2023-04-20T11:42:41.948Z,100209.41
2023-04-20T11:45:09.151Z,100216.75
2023-04-20T11:47:35.732Z,100210.78
2023-04-20T11:50:02.292Z,100207.25
2023-04-20T11:52:28.899Z,100210.97
2023-04-20T11:54:55.487Z,100208.03
2023-04-20T11:57:23.886Z,100216.53
2023-04-20T11:59:50.633Z,100198.97
2023-04-20T12:02:17.515Z,100204.50
2023-04-20T12:04:44.328Z,100195.81
2023-04-20T12:07:11.035Z,100204.09
2023-04-20T12:09:38.434Z,100199.19
2023-04-20T12:12:06.148Z,100201.09
2023-04-20T12:14:33.727Z,100196.53
2023-04-20T12:17:04.569Z,100181.44
2023-04-20T12:19:32.102Z,100189.00
2023-04-20T12:21:58.745Z,100192.13
2023-04-20T12:24:25.351Z,100198.91
2023-04-20T12:26:51.969Z,100190.66
2023-04-20T12:29:18.656Z,100194.75
2023-04-20T12:31:45.456Z,100188.63
2023-04-20T12:34:12.328Z,100181.81
2023-04-20T12:36:38.926Z,100182.78
2023-04-20T12:39:05.630Z,100179.91
2023-04-20T12:41:33.215Z,100171.72
2023-04-20T12:44:00.762Z,100173.78
2023-04-20T12:46:28.808Z,100186.09
2023-04-20T12:48:56.196Z,100167.38
2023-04-20T12:51:22.813Z,100166.94
2023-04-20T12:53:49.416Z,100168.19
2023-04-20T12:56:16.014Z,100164.84
2023-04-20T12:58:42.581Z,100164.19
2023-04-20T13:01:09.958Z,100170.75
2023-04-20T13:03:36.802Z,100158.38
2023-04-20T13:06:03.668Z,100162.44
2023-04-20T13:08:30.440Z,100152.78
2023-04-20T13:10:56.987Z,100158.25
2023-04-20T13:13:23.525Z,100152.72
2023-04-20T13:15:50.151Z,100159.97
2023-04-20T13:18:16.750Z,100142.16
2023-04-20T13:20:43.316Z,100143.34
2023-04-20T13:23:09.947Z,100149.22
2023-04-20T13:25:38.656Z,100139.69
2023-04-20T13:28:05.612Z,100146.63
2023-04-20T13:30:32.725Z,100144.91
2023-04-20T13:32:59.400Z,100141.78
2023-04-20T13:35:26.319Z,100137.91
2023-04-20T13:37:52.888Z,100150.44
2023-04-20T13:40:19.448Z,100144.28
2023-04-20T13:42:46.080Z,100147.13
2023-04-20T13:45:12.683Z,100146.16
2023-04-20T13:47:40.389Z,100142.94
2023-04-20T13:50:07.750Z,100138.19
2023-04-20T13:52:34.726Z,100133.88
2023-04-20T13:55:01.349Z,100142.97
2023-04-20T13:57:27.966Z,100128.38
2023-04-20T13:59:54.538Z,100126.94
2023-04-20T14:02:21.405Z,100131.75
2023-04-20T14:04:48.151Z,100130.03
2023-04-20T14:07:14.809Z,100131.72
2023-04-20T14:09:41.518Z,100125.16
2023-04-20T14:12:08.193Z,100122.31
2023-04-20T14:14:34.760Z,100116.94
2023-04-20T14:17:02.022Z,100119.59
2023-04-20T14:19:28.643Z,100110.41
2023-04-20T14:21:55.376Z,100105.03
2023-04-20T14:24:21.939Z,100109.97
2023-04-20T14:26:48.571Z,100110.25
2023-04-20T14:29:15.743Z,100100.53
2023-04-20T14:31:42.404Z,100095.53
2023-04-20T14:34:09.593Z,100097.00
2023-04-20T14:36:36.235Z,100093.69
2023-04-20T14:39:02.819Z,100088.75
2023-04-20T14:41:30.659Z,100102.19
2023-04-20T14:43:58.328Z,100109.53
2023-04-20T14:46:25.057Z,100095.94
2023-04-20T14:48:52.256Z,100098.25
2023-04-20T14:51:20.814Z,100101.97
2023-04-20T14:53:47.382Z,100100.03
2023-04-20T14:56:13.955Z,100096.75
2023-04-20T14:58:42.353Z,100092.69
2023-04-20T15:01:09.086Z,100088.56
2023-04-20T15:03:35.939Z,100093.19
2023-04-20T15:06:03.599Z,100091.72
2023-04-20T15:08:30.704Z,100085.44
2023-04-20T15:10:57.504Z,100086.41
2023-04-20T15:13:24.713Z,100083.47
2023-04-20T15:15:54.185Z,100083.84
2023-04-20T15:18:21.736Z,100083.06
2023-04-20T15:20:50.451Z,100083.25
2023-04-20T15:23:17.251Z,100095.66
2023-04-20T15:25:43.949Z,100092.88
2023-04-20T15:28:11.224Z,100086.44
2023-04-20T15:30:37.904Z,100090.75
2023-04-20T15:33:05.491Z,100093.38
2023-04-20T15:35:32.893Z,100094.16
2023-04-20T15:37:59.524Z,100096.69
2023-04-20T15:40:27.354Z,100094.38
2023-04-20T15:42:57.684Z,100093.84
2023-04-20T15:45:24.621Z,100097.94
2023-04-20T15:47:51.713Z,100095.53
2023-04-20T15:50:19.080Z,100091.66
2023-04-20T15:52:49.652Z,100094.22
2023-04-20T15:55:16.760Z,100099.28
2023-04-20T15:57:44.495Z,100104.66
2023-04-20T16:00:12.213Z,100103.47
2023-04-20T16:02:40.122Z,100097.47
2023-04-20T16:05:07.754Z,100098.69
2023-04-20T16:07:34.444Z,100113.47
2023-04-20T16:10:02.177Z,100112.00
2023-04-20T16:12:29.146Z,100116.44
2023-04-20T16:14:57.108Z,100109.22
2023-04-20T16:17:23.866Z,100116.78
2023-04-20T16:19:50.471Z,100110.19
2023-04-20T16:22:17.237Z,100112.91
2023-04-20T16:24:43.780Z,100111.28
2023-04-20T16:27:10.462Z,100108.59
2023-04-20T16:29:37.055Z,100116.19
2023-04-20T16:32:03.656Z,100115.03
2023-04-20T16:34:31.595Z,100119.03
2023-04-20T16:36:58.642Z,100126.75
2023-04-20T16:39:25.330Z,100126.59
2023-04-20T16:41:51.938Z,100135.03
2023-04-20T16:44:18.745Z,100135.75
2023-04-20T16:46:49.857Z,100129.44
2023-04-20T16:49:16.666Z,100131.78
2023-04-20T16:51:43.372Z,100132.00
2023-04-20T16:54:11.538Z,100130.97
2023-04-20T16:56:38.521Z,100134.06
2023-04-20T16:59:05.355Z,100131.06
2023-04-20T17:01:32.151Z,100131.88
2023-04-20T17:03:59.828Z,100138.25
2023-04-20T17:06:27.465Z,100140.19
2023-04-20T17:08:56.012Z,100139.97
2023-04-20T17:11:22.622Z,100155.88
2023-04-20T17:13:49.349Z,100161.47
2023-04-20T17:16:16.056Z,100157.63
2023-04-20T17:18:42.675Z,100164.78
2023-04-20T17:21:09.234Z,100161.84
2023-04-20T17:23:36.083Z,100157.91
2023-04-20T17:26:03.148Z,100154.69
2023-04-20T17:28:29.803Z,100166.53
2023-04-20T17:30:56.371Z,100162.81
2023-04-20T17:33:22.973Z,100167.31
2023-04-20T17:35:49.560Z,100174.19
2023-04-20T17:38:16.136Z,100179.72
2023-04-20T17:40:42.760Z,100179.97
2023-04-20T17:43:09.445Z,100177.00
2023-04-20T17:45:37.098Z,100180.91
2023-04-20T17:48:04.091Z,100182.91
2023-04-20T17:50:30.768Z,100183.38
2023-04-20T17:52:57.385Z,100183.34
2023-04-20T17:55:24.050Z,100181.59
2023-04-20T17:57:50.986Z,100180.94
2023-04-20T18:00:18.705Z,100193.81
2023-04-20T18:02:45.437Z,100184.81
2023-04-20T18:05:12.187Z,100190.66
2023-04-20T18:07:38.757Z,100198.16
2023-04-20T18:10:06.023Z,100201.91
2023-04-20T18:12:33.619Z,100207.44
2023-04-20T18:15:00.766Z,100220.97
2023-04-20T18:17:27.528Z,100219.41
2023-04-20T18:19:54.154Z,100211.69
2023-04-20T18:22:20.931Z,100224.00
2023-04-20T18:24:47.498Z,100228.50
2023-04-20T18:27:14.068Z,100226.31
2023-04-20T18:29:40.625Z,100233.56
2023-04-20T18:32:07.178Z,100239.38
2023-04-20T18:34:33.768Z,100241.34
2023-04-20T18:37:00.425Z,100240.50
2023-04-20T18:39:27.064Z,100251.47
2023-04-20T18:41:53.674Z,100251.19
2023-04-20T18:44:20.855Z,100244.28
2023-04-20T18:46:47.805Z,100248.31
2023-04-20T18:49:14.464Z,100257.50
2023-04-20T18:51:41.043Z,100253.59
2023-04-20T18:54:07.679Z,100261.94
2023-04-20T18:56:34.271Z,100265.03
2023-04-20T18:59:01.583Z,100258.25
2023-04-20T19:01:28.634Z,100266.97
2023-04-20T19:03:55.660Z,100261.53
2023-04-20T19:06:22.584Z,100263.59
2023-04-20T19:08:50.937Z,100260.41
2023-04-20T19:11:17.765Z,100270.09
2023-04-20T19:13:45.315Z,100265.56
2023-04-20T19:16:12.773Z,100260.03
2023-04-20T19:18:39.683Z,100267.31
2023-04-20T19:21:06.768Z,100267.69
2023-04-20T19:23:33.648Z,100263.81
2023-04-20T19:26:00.410Z,100261.63
2023-04-20T19:28:26.957Z,100272.03
2023-04-20T19:30:53.682Z,100269.66
2023-04-20T19:33:20.888Z,100271.03
2023-04-20T19:35:53.562Z,100268.69
2023-04-20T19:38:21.533Z,100273.75
2023-04-20T19:40:48.578Z,100278.81
2023-04-20T19:43:16.931Z,100286.97
2023-04-20T19:45:44.127Z,100279.19
2023-04-20T19:48:10.912Z,100283.44
2023-04-20T19:50:37.512Z,100280.41
2023-04-20T19:53:04.107Z,100285.69
2023-04-20T19:55:31.039Z,100283.72
2023-04-20T19:57:57.628Z,100284.41
2023-04-20T20:00:24.251Z,100287.16
2023-04-20T20:02:50.898Z,100285.78
2023-04-20T20:05:17.663Z,100291.22
2023-04-20T20:07:44.364Z,100295.81
2023-04-20T20:10:11.113Z,100296.13
2023-04-20T20:12:37.698Z,100296.34
2023-04-20T20:15:04.863Z,100295.81
2023-04-20T20:17:31.662Z,100296.03
2023-04-20T20:19:58.342Z,100295.19
2023-04-20T20:22:25.234Z,100302.66
2023-04-20T20:24:54.219Z,100292.13
2023-04-20T20:27:21.256Z,100300.47
2023-04-20T20:29:47.974Z,100301.81
2023-04-20T20:32:14.699Z,100300.00
2023-04-20T20:34:41.634Z,100294.91
2023-04-20T20:37:10.305Z,100299.47
2023-04-20T20:39:37.467Z,100307.13
2023-04-20T20:42:05.383Z,100308.13
2023-04-20T20:44:34.258Z,100314.06
2023-04-20T20:47:01.102Z,100302.53
2023-04-20T20:49:29.208Z,100309.47
2023-04-20T20:51:55.960Z,100310.16
2023-04-20T20:54:22.557Z,100309.97
2023-04-20T20:56:49.195Z,100320.91
2023-04-20T20:59:15.840Z,100312.59
2023-04-20T21:01:42.570Z,100321.91
2023-04-20T21:04:09.305Z,100313.97
2023-04-20T21:06:36.167Z,100313.09
2023-04-20T21:09:02.776Z,100316.28
2023-04-20T21:11:29.408Z,100315.09
2023-04-20T21:14:01.511Z,100316.25
2023-04-20T21:16:28.671Z,100313.31
2023-04-20T21:18:55.334Z,100324.47
2023-04-20T21:21:21.928Z,100327.16
2023-04-20T21:23:49.773Z,100327.13
2023-04-20T21:26:16.491Z,100321.34
2023-04-20T21:28:43.032Z,100316.25
2023-04-20T21:31:09.676Z,100316.38
2023-04-20T21:33:36.517Z,100326.69
2023-04-20T21:36:03.125Z,100323.47
2023-04-20T21:38:29.672Z,100316.84
2023-04-20T21:40:56.222Z,100325.28
2023-04-20T21:43:22.768Z,100321.38
2023-04-20T21:45:50.853Z,100320.50
2023-04-20T21:48:18.129Z,100325.88
2023-04-20T21:50:44.691Z,100321.47
2023-04-20T21:53:11.273Z,100327.53
2023-04-20T21:55:37.839Z,100335.25
2023-04-20T21:58:06.671Z,100327.88
2023-04-20T22:00:33.246Z,100328.66
2023-04-20T22:02:59.969Z,100324.41
2023-04-20T22:05:27.841Z,100335.31
2023-04-20T22:07:54.414Z,100329.53
2023-04-20T22:10:21.183Z,100330.00
2023-04-20T22:12:47.859Z,100329.28
2023-04-20T22:15:15.023Z,100324.84
2023-04-20T22:17:41.653Z,100323.44
2023-04-20T22:20:10.313Z,100321.69
2023-04-20T22:22:37.810Z,100323.13
2023-04-20T22:25:05.316Z,100319.81
2023-04-20T22:27:34.028Z,100320.41
2023-04-20T22:30:00.870Z,100326.97
2023-04-20T22:32:27.714Z,100330.13
2023-04-20T22:34:54.371Z,100330.44
2023-04-20T22:37:21.067Z,100323.34
2023-04-20T22:39:47.621Z,100322.06
2023-04-20T22:42:14.177Z,100320.31
2023-04-20T22:44:40.882Z,100323.19
2023-04-20T22:47:07.654Z,100319.25
2023-04-20T22:49:34.974Z,100318.97
2023-04-20T22:52:01.732Z,100313.44
2023-04-20T22:54:28.335Z,100320.91
2023-04-20T22:56:54.892Z,100318.63
2023-04-20T22:59:21.570Z,100319.66
2023-04-20T23:01:48.325Z,100321.84
2023-04-20T23:04:14.996Z,100310.09
2023-04-20T23:06:43.869Z,100316.88
2023-04-20T23:09:13.285Z,100321.59
2023-04-20T23:11:40.540Z,100320.03
2023-04-20T23:14:08.671Z,100319.34
2023-04-20T23:16:35.950Z,100317.34
2023-04-20T23:19:02.627Z,100325.13
2023-04-20T23:21:29.233Z,100312.06
2023-04-20T23:23:58.986Z,100317.47
2023-04-20T23:26:25.554Z,100318.59
2023-04-20T23:28:53.446Z,100310.97
2023-04-20T23:31:20.709Z,100313.78
2023-04-20T23:33:48.207Z,100319.88
2023-04-20T23:36:14.922Z,100314.34
2023-04-20T23:38:42.016Z,100324.56
2023-04-20T23:41:12.662Z,100313.78
2023-04-20T23:43:39.899Z,100317.50
2023-04-20T23:46:07.295Z,100320.47
2023-04-20T23:48:34.686Z,100324.31
2023-04-20T23:51:01.750Z,100315.38
2023-04-20T23:53:28.505Z,100323.00
2023-04-20T23:55:59.907Z,100309.41
2023-04-20T23:58:28.274Z,100319.75
